»·PEaware :: N224TR KPSP-KBUR

N224TR :: KPSP-KBUR

FLIGHT INFORMATION

Flight Status: Arrived
Operator: Privately registered:
United States
More flights under this callsign
Pilot: Logan D. (20254)
Aircraft: Unknown
(L39)
More flights by this aircraft type
Origin: KPSP Palm Springs Intl
United States
Destination: KBUR Bob Hope-Burbank
United States
More flights between these airports :: More routes between these airports
Route:
File this flight plan on PilotEdge
Remarks:
Altitude:
(Current/Filed)
6,500ft
Speed:
(Current/Filed)
250kts
Departed: 11-Jan-21 10:42 AM
Arrived: 11-Jan-21 11:19 AM
Distance/Time
Traveled:
95nm/0:37
Distance/Time
To Go:
Arrived

Flight Plot

Page will automatically refresh every two minutes.

Flight plan parsing failed; only flown route is shown


Map Options




Map Legend


Flown Route
Filed Route
Departure Airport
Arrival Airport
Navaid (VOR, NDB)
Fix

Horizontal Profiles

Position Reports

Time Latitude Longitude Heading Altitude Ground
Speed
11-Jan-21 10:24 33.825703 -116.509328 269 483ft 0kts
11-Jan-21 10:25 33.825703 -116.509328 269 483ft 0kts
11-Jan-21 10:26 33.825703 -116.509328 269 483ft 0kts
11-Jan-21 10:27 33.825703 -116.509328 269 483ft 0kts
11-Jan-21 10:28 33.825703 -116.509328 269 483ft 0kts
11-Jan-21 10:29 33.825703 -116.509329 269 483ft 0kts
11-Jan-21 10:30 33.825703 -116.509331 269 483ft 0kts
11-Jan-21 10:32 33.825703 -116.509335 269 483ft 0kts
11-Jan-21 10:33 33.825703 -116.509337 269 483ft 0kts
11-Jan-21 10:34 33.825703 -116.509339 269 483ft 0kts
11-Jan-21 10:35 33.825346 -116.508607 91 483ft 15kts
11-Jan-21 10:36 33.825136 -116.505680 139 483ft 11kts
11-Jan-21 10:37 33.821728 -116.502539 142 483ft 19kts
11-Jan-21 10:38 33.818521 -116.499265 80 483ft 3kts
11-Jan-21 10:39 33.818539 -116.498994 87 483ft 0kts
11-Jan-21 10:40 33.818539 -116.498992 87 483ft 0kts
11-Jan-21 10:41 33.821716 -116.500610 323 483ft 80kts
11-Jan-21 10:42 33.854214 -116.530187 317 2649ft 185kts
11-Jan-21 10:43 33.882144 -116.570420 302 4571ft 148kts
11-Jan-21 10:44 33.898061 -116.616800 289 5765ft 168kts
11-Jan-21 10:45 33.906552 -116.671826 278 6422ft 159kts
11-Jan-21 10:46 33.907828 -116.728190 269 6583ft 197kts
11-Jan-21 10:47 33.907248 -116.769858 275 6713ft 226kts
11-Jan-21 10:48 33.913462 -116.827194 279 7042ft 242kts
11-Jan-21 10:49 33.927768 -116.899159 293 6599ft 238kts
11-Jan-21 10:50 33.950647 -116.963415 299 6386ft 188kts
11-Jan-21 10:51 33.970541 -117.012220 298 6375ft 148kts
11-Jan-21 10:52 33.988928 -117.059898 296 6620ft 177kts
11-Jan-21 10:53 34.014032 -117.117694 296 6411ft 186kts
11-Jan-21 10:54 34.032648 -117.169369 292 6498ft 168kts
11-Jan-21 10:55 34.049798 -117.228480 298 6658ft 199kts
11-Jan-21 10:56 34.075699 -117.285200 300 6636ft 179kts
11-Jan-21 10:57 34.094637 -117.341395 282 6585ft 182kts
11-Jan-21 10:58 34.099906 -117.403446 272 6595ft 185kts
11-Jan-21 10:59 34.100214 -117.466604 272 6567ft 191kts
11-Jan-21 11:00 34.100822 -117.531214 271 6487ft 194kts
11-Jan-21 11:01 34.102358 -117.596650 271 6402ft 195kts
11-Jan-21 11:02 34.101916 -117.661805 269 6370ft 194kts
11-Jan-21 11:03 34.101542 -117.727048 269 6457ft 187kts
11-Jan-21 11:04 34.104313 -117.790618 275 6335ft 194kts
11-Jan-21 11:05 34.107836 -117.853827 273 6416ft 191kts
11-Jan-21 11:06 34.111754 -117.917975 286 6341ft 191kts
11-Jan-21 11:07 34.120050 -117.981857 281 6235ft 174kts
11-Jan-21 11:09 34.127363 -118.040851 278 6015ft 191kts
11-Jan-21 11:10 34.133311 -118.087834 278 4900ft 119kts
11-Jan-21 11:11 34.139864 -118.138402 278 4100ft 214kts
11-Jan-21 11:12 34.146094 -118.204645 275 3650ft 179kts
11-Jan-21 11:13 34.155813 -118.267606 282 3484ft 200kts
11-Jan-21 11:14 34.156817 -118.327091 263 3164ft 167kts
11-Jan-21 11:15 34.156211 -118.382681 270 2900ft 169kts
11-Jan-21 11:16 34.177170 -118.414484 357 2256ft 135kts
11-Jan-21 11:17 34.198119 -118.390987 90 1203ft 119kts
11-Jan-21 11:18 34.197801 -118.362025 91 727ft 44kts
11-Jan-21 11:19 34.198870 -118.359239 275 727ft 19kts
11-Jan-21 11:20 34.199618 -118.364636 1 727ft 13kts
11-Jan-21 11:21 34.200148 -118.364600 2 727ft 0kts
11-Jan-21 11:22 34.200150 -118.364600 2 727ft 0kts
11-Jan-21 11:23 34.200150 -118.364600 2 727ft 0kts
11-Jan-21 11:24 34.200150 -118.364600 2 727ft 0kts
11-Jan-21 11:24 34.200150 -118.364600 2 727ft 0kts
11-Jan-21 11:26 34.200150 -118.364600 2 727ft 0kts
11-Jan-21 11:26 34.200150 -118.364600 2 727ft 0kts
11-Jan-21 11:27 34.200150 -118.364600 2 727ft 0kts
11-Jan-21 11:29 34.200150 -118.364600 2 727ft 0kts
11-Jan-21 11:29 34.200150 -118.364600 2 727ft 0kts
11-Jan-21 11:30 34.200150 -118.364600 2 727ft 0kts
11-Jan-21 11:31 34.200150 -118.364600 2 727ft 0kts
11-Jan-21 11:32 34.200150 -118.364600 2 727ft 0kts

Navigation Log

Ident Type
Flight plan parsing failed, navigation log unavailable